createdAt,value
2023-04-21T00:02:04.504Z,0.93
2023-04-21T00:04:33.390Z,0.80
2023-04-21T00:07:03.953Z,0.90
2023-04-21T00:09:33.884Z,0.80
2023-04-21T00:12:02.459Z,0.93
2023-04-21T00:14:31.062Z,0.80
2023-04-21T00:17:00.428Z,1.00
2023-04-21T00:19:29.085Z,0.80
2023-04-21T00:21:59.119Z,1.10
2023-04-21T00:24:27.640Z,1.10
2023-04-21T00:26:57.669Z,1.03
2023-04-21T00:29:26.324Z,0.90
2023-04-21T00:31:54.948Z,0.90
2023-04-21T00:34:23.631Z,1.00
2023-04-21T00:36:52.267Z,1.83
2023-04-21T00:39:21.024Z,1.00
2023-04-21T00:41:49.705Z,1.00
2023-04-21T00:44:19.683Z,0.80
2023-04-21T00:46:49.067Z,1.00
2023-04-21T00:49:18.116Z,1.00
2023-04-21T00:51:46.860Z,0.90
2023-04-21T00:54:15.980Z,1.07
2023-04-21T00:56:44.604Z,1.23
2023-04-21T00:59:13.176Z,1.10
2023-04-21T01:01:43.235Z,1.00
2023-04-21T01:04:12.062Z,1.10
2023-04-21T01:06:42.832Z,1.00
2023-04-21T01:09:12.340Z,1.03
2023-04-21T01:11:41.156Z,1.00
2023-04-21T01:14:09.620Z,1.27
2023-04-21T01:16:38.618Z,1.13
2023-04-21T01:19:08.619Z,1.00
2023-04-21T01:21:43.080Z,1.10
2023-04-21T01:24:11.990Z,1.17
2023-04-21T01:26:40.592Z,1.10
2023-04-21T01:29:09.189Z,0.87
2023-04-21T01:31:37.922Z,1.00
2023-04-21T01:34:06.636Z,1.00
2023-04-21T01:36:36.175Z,1.13
2023-04-21T01:39:06.269Z,1.10
2023-04-21T01:41:34.752Z,1.10
2023-04-21T01:44:03.396Z,1.03
2023-04-21T01:46:32.015Z,1.23
2023-04-21T01:49:00.507Z,1.10
2023-04-21T01:51:29.100Z,1.23
2023-04-21T01:53:57.663Z,1.20
2023-04-21T01:56:27.536Z,1.30
2023-04-21T01:58:56.090Z,1.17
2023-04-21T02:01:24.788Z,1.10
2023-04-21T02:03:53.439Z,1.20
2023-04-21T02:06:22.217Z,1.00
2023-04-21T02:08:50.874Z,1.10
2023-04-21T02:11:19.337Z,1.10
2023-04-21T02:13:49.301Z,1.20
2023-04-21T02:16:18.708Z,1.07
2023-04-21T02:18:47.261Z,1.00
2023-04-21T02:21:15.873Z,1.03
2023-04-21T02:23:44.439Z,1.30
2023-04-21T02:26:12.869Z,1.10
2023-04-21T02:28:41.495Z,1.10
2023-04-21T02:31:11.602Z,1.20
2023-04-21T02:33:40.109Z,1.20
2023-04-21T02:36:08.998Z,1.13
2023-04-21T02:38:37.634Z,1.30
2023-04-21T02:41:06.110Z,1.17
2023-04-21T02:43:34.752Z,1.10
2023-04-21T02:46:08.491Z,1.10
2023-04-21T02:48:38.690Z,1.30
2023-04-21T02:51:07.296Z,1.10
2023-04-21T02:53:35.766Z,1.03
2023-04-21T02:56:05.153Z,1.10
2023-04-21T02:58:33.698Z,1.10
2023-04-21T03:01:02.670Z,1.20
2023-04-21T03:03:31.802Z,1.10
2023-04-21T03:06:02.669Z,1.20
2023-04-21T03:08:31.281Z,1.10
2023-04-21T03:10:59.906Z,1.20
2023-04-21T03:13:28.826Z,1.20
2023-04-21T03:15:57.859Z,1.10
2023-04-21T03:18:26.420Z,1.10
2023-04-21T03:20:55.256Z,1.40
2023-04-21T03:23:25.103Z,1.20
2023-04-21T03:25:53.548Z,1.30
2023-04-21T03:28:22.311Z,1.00
2023-04-21T03:30:50.791Z,0.97
2023-04-21T03:33:19.256Z,1.10
2023-04-21T03:35:48.172Z,1.10
2023-04-21T03:38:16.963Z,1.20
2023-04-21T03:40:46.927Z,1.20
2023-04-21T03:43:15.562Z,1.03
2023-04-21T03:45:44.265Z,1.10
2023-04-21T03:48:12.821Z,1.20
2023-04-21T03:50:41.469Z,1.70
2023-04-21T03:53:10.050Z,1.10
2023-04-21T03:55:38.501Z,1.20
2023-04-21T03:58:08.682Z,1.23
2023-04-21T04:00:37.207Z,1.20
2023-04-21T04:03:06.010Z,1.20
2023-04-21T04:05:34.845Z,0.97
2023-04-21T04:08:03.520Z,1.00
2023-04-21T04:10:31.980Z,1.17
2023-04-21T04:13:01.244Z,1.00
2023-04-21T04:15:31.246Z,1.00
2023-04-21T04:17:59.746Z,1.10
2023-04-21T04:20:28.342Z,1.40
2023-04-21T04:22:56.904Z,1.10
2023-04-21T04:25:25.454Z,1.10
2023-04-21T04:27:54.019Z,1.13
2023-04-21T04:30:24.020Z,1.33
2023-04-21T04:32:53.908Z,1.13
2023-04-21T04:35:22.524Z,1.20
2023-04-21T04:37:51.207Z,1.20
2023-04-21T04:40:20.681Z,1.20
2023-04-21T04:42:52.272Z,1.13
2023-04-21T04:45:22.252Z,1.10
2023-04-21T04:47:51.226Z,1.20
2023-04-21T04:50:21.411Z,1.17
2023-04-21T04:52:50.045Z,1.10
2023-04-21T04:55:18.992Z,1.07
2023-04-21T04:57:47.438Z,1.20
2023-04-21T05:00:16.266Z,1.30
2023-04-21T05:02:45.043Z,1.23
2023-04-21T05:05:13.750Z,1.00
2023-04-21T05:07:43.807Z,0.90
2023-04-21T05:10:12.405Z,1.13
2023-04-21T05:12:41.066Z,1.30
2023-04-21T05:15:10.088Z,1.30
2023-04-21T05:17:38.752Z,1.40
2023-04-21T05:20:07.660Z,1.40
2023-04-21T05:22:39.050Z,1.13
2023-04-21T05:25:09.482Z,1.27
2023-04-21T05:27:38.123Z,1.27
2023-04-21T05:30:06.873Z,1.47
2023-04-21T05:32:36.917Z,1.30
2023-04-21T05:35:05.665Z,1.20
2023-04-21T05:37:34.119Z,1.27
2023-04-21T05:40:02.713Z,1.43
2023-04-21T05:42:32.799Z,1.40
2023-04-21T05:45:01.282Z,1.10
2023-04-21T05:47:29.960Z,1.30
2023-04-21T05:49:58.590Z,1.10
2023-04-21T05:52:27.081Z,0.87
2023-04-21T05:54:55.723Z,1.30
2023-04-21T05:57:24.320Z,1.23
2023-04-21T05:59:54.191Z,1.10
2023-04-21T06:02:22.845Z,1.20
2023-04-21T06:04:51.833Z,1.40
2023-04-21T06:07:20.813Z,1.20
2023-04-21T06:09:52.433Z,0.90
2023-04-21T06:12:20.988Z,0.93
2023-04-21T06:14:49.449Z,1.10
2023-04-21T06:17:20.185Z,1.13
2023-04-21T06:19:53.027Z,1.00
2023-04-21T06:22:22.055Z,0.93
2023-04-21T06:24:50.600Z,1.17
2023-04-21T06:27:19.338Z,1.20
2023-04-21T06:29:47.901Z,1.23
2023-04-21T06:32:16.385Z,1.20
2023-04-21T06:34:46.292Z,1.10
2023-04-21T06:37:14.850Z,0.73
2023-04-21T06:39:43.300Z,0.90
2023-04-21T06:42:12.034Z,0.83
2023-04-21T06:44:40.911Z,0.80
2023-04-21T06:47:09.694Z,0.80
2023-04-21T06:49:38.316Z,0.80
2023-04-21T06:52:08.341Z,0.70
2023-04-21T06:54:36.803Z,0.90
2023-04-21T06:57:05.823Z,0.80
2023-04-21T06:59:34.779Z,0.80
2023-04-21T07:02:03.334Z,0.70
2023-04-21T07:04:32.436Z,0.70
2023-04-21T07:07:03.071Z,1.00
2023-04-21T07:09:34.046Z,0.70
2023-04-21T07:12:03.177Z,0.70
2023-04-21T07:14:31.655Z,0.50
2023-04-21T07:17:00.185Z,0.70
2023-04-21T07:19:28.996Z,0.70
2023-04-21T07:21:59.878Z,0.70
2023-04-21T07:24:28.342Z,0.70
2023-04-21T07:26:58.405Z,0.87
2023-04-21T07:29:26.888Z,0.63
2023-04-21T07:31:55.458Z,0.80
2023-04-21T07:34:24.071Z,0.80
2023-04-21T07:36:53.000Z,0.80
2023-04-21T07:39:21.802Z,0.90
2023-04-21T07:41:50.664Z,0.77
2023-04-21T07:44:20.734Z,0.73
2023-04-21T07:46:49.325Z,0.80
2023-04-21T07:49:18.392Z,0.67
2023-04-21T07:51:47.036Z,0.63
2023-04-21T07:54:15.574Z,0.93
2023-04-21T07:56:44.102Z,0.90
2023-04-21T07:59:12.749Z,0.53
2023-04-21T08:01:42.606Z,0.67
2023-04-21T08:04:11.352Z,0.63
2023-04-21T08:06:40.221Z,0.80
2023-04-21T08:09:08.914Z,0.63
2023-04-21T08:11:37.587Z,0.80
2023-04-21T08:14:06.390Z,0.60
2023-04-21T08:16:35.008Z,0.60
2023-04-21T08:19:04.995Z,0.60
2023-04-21T08:21:33.640Z,0.70
2023-04-21T08:24:02.267Z,0.60
2023-04-21T08:26:31.123Z,0.60
2023-04-21T08:29:00.727Z,0.60
2023-04-21T08:31:30.944Z,0.73
2023-04-21T08:34:02.705Z,0.73
2023-04-21T08:36:33.076Z,0.70
2023-04-21T08:39:02.003Z,0.60
2023-04-21T08:41:30.705Z,0.60
2023-04-21T08:43:59.365Z,0.63
2023-04-21T08:46:29.620Z,0.90
2023-04-21T08:49:00.302Z,0.70
2023-04-21T08:51:30.313Z,0.80
2023-04-21T08:54:00.226Z,0.70
2023-04-21T08:56:28.944Z,0.80
2023-04-21T08:58:58.371Z,0.80
2023-04-21T09:01:26.896Z,0.70
2023-04-21T09:03:55.630Z,0.70
2023-04-21T09:06:24.723Z,0.73
2023-04-21T09:08:56.018Z,0.67
2023-04-21T09:11:26.028Z,0.50
2023-04-21T09:13:59.155Z,0.60
2023-04-21T09:16:31.334Z,1.00
2023-04-21T09:19:01.718Z,0.60
2023-04-21T09:21:32.482Z,0.50
2023-04-21T09:24:07.567Z,0.40
2023-04-21T09:26:37.416Z,0.60
2023-04-21T09:29:08.386Z,0.50
2023-04-21T09:31:37.659Z,0.60
2023-04-21T09:34:18.756Z,0.70
2023-04-21T09:36:47.529Z,0.70
2023-04-21T09:41:49.115Z,0.80
2023-04-21T09:44:18.163Z,0.60
2023-04-21T09:46:49.419Z,0.67
2023-04-21T09:49:18.983Z,0.80
2023-04-21T09:54:29.280Z,0.70
2023-04-21T09:57:01.876Z,0.70
2023-04-21T09:59:32.336Z,0.53
2023-04-21T10:02:02.437Z,0.60
2023-04-21T10:04:33.490Z,0.70
2023-04-21T10:07:02.324Z,0.80
2023-04-21T10:09:33.458Z,0.83
2023-04-21T10:12:05.903Z,0.70
2023-04-21T10:14:35.531Z,0.70
2023-04-21T10:17:06.621Z,0.60
2023-04-21T10:19:39.951Z,0.90
2023-04-21T10:22:10.234Z,0.70
2023-04-21T10:24:39.606Z,0.77
2023-04-21T10:27:11.553Z,0.60
2023-04-21T10:29:55.205Z,0.60
2023-04-21T10:32:34.344Z,0.73
2023-04-21T10:35:03.223Z,0.87
2023-04-21T10:37:33.208Z,0.70
2023-04-21T10:40:01.806Z,0.67
2023-04-21T10:42:38.060Z,0.83
2023-04-21T10:45:11.011Z,0.70
2023-04-21T10:47:43.616Z,0.53
2023-04-21T10:50:16.457Z,0.47
2023-04-21T10:52:48.523Z,0.77
2023-04-21T10:55:17.387Z,0.67
2023-04-21T10:57:47.354Z,0.50
2023-04-21T11:00:20.305Z,0.70
2023-04-21T11:02:58.774Z,0.60
2023-04-21T11:05:36.598Z,0.97
2023-04-21T11:08:08.780Z,0.90
2023-04-21T11:10:51.375Z,0.70
2023-04-21T11:13:22.057Z,0.70
2023-04-21T11:16:03.662Z,0.70
2023-04-21T11:18:41.983Z,0.70
2023-04-21T11:21:17.867Z,0.57
2023-04-21T11:23:53.021Z,0.70
2023-04-21T11:26:31.660Z,0.70
2023-04-21T11:29:03.335Z,0.67
2023-04-21T11:31:32.562Z,0.90
2023-04-21T11:34:01.259Z,0.67
2023-04-21T11:36:29.788Z,0.60
2023-04-21T11:38:58.765Z,0.70
2023-04-21T11:41:27.418Z,0.80
2023-04-21T11:43:55.917Z,0.83
2023-04-21T11:46:26.952Z,0.70
2023-04-21T11:49:02.093Z,0.90
2023-04-21T11:51:34.590Z,0.80
2023-04-21T11:54:04.597Z,0.70
2023-04-21T11:56:37.389Z,0.80
2023-04-21T11:59:09.022Z,0.63
2023-04-21T12:01:44.517Z,0.80
2023-04-21T12:04:16.141Z,0.83
2023-04-21T12:06:45.388Z,0.63
2023-04-21T12:09:18.801Z,0.60
2023-04-21T12:11:50.330Z,0.77
2023-04-21T12:14:21.555Z,0.70
2023-04-21T12:16:52.400Z,0.73
2023-04-21T12:19:25.317Z,0.90
2023-04-21T12:21:57.075Z,0.80
2023-04-21T12:24:26.074Z,0.70
2023-04-21T12:26:54.569Z,0.70
2023-04-21T12:29:23.196Z,0.63
2023-04-21T12:31:53.276Z,0.80
2023-04-21T12:34:21.815Z,0.90
2023-04-21T12:36:50.481Z,0.80
2023-04-21T12:39:19.583Z,0.93
2023-04-21T12:41:48.908Z,0.80
2023-04-21T12:44:17.624Z,0.70
2023-04-21T12:46:46.201Z,0.70
2023-04-21T12:49:17.292Z,0.90
2023-04-21T12:51:46.130Z,0.95
2023-04-21T12:54:15.476Z,0.70
2023-04-21T12:56:44.270Z,0.80
2023-04-21T12:59:13.311Z,0.70
2023-04-21T13:01:42.618Z,1.02
2023-04-21T13:04:11.397Z,0.90
2023-04-21T13:06:41.757Z,0.80
2023-04-21T13:09:11.378Z,0.70
2023-04-21T13:11:39.945Z,0.75
2023-04-21T13:14:09.161Z,0.90
2023-04-21T13:16:37.759Z,0.90
2023-04-21T13:19:06.340Z,0.80
2023-04-21T13:21:35.004Z,0.80
2023-04-21T13:24:05.019Z,0.90
2023-04-21T13:26:35.178Z,0.98
2023-04-21T13:29:03.849Z,0.80
2023-04-21T13:31:32.692Z,0.88
2023-04-21T13:34:01.346Z,0.85
2023-04-21T13:36:29.929Z,0.90
2023-04-21T13:38:58.606Z,0.80
2023-04-21T13:41:28.475Z,0.68
2023-04-21T13:43:57.089Z,0.77
2023-04-21T13:46:25.800Z,0.73
2023-04-21T13:48:54.542Z,0.90
2023-04-21T13:51:23.683Z,0.85
2023-04-21T13:53:52.427Z,0.80
2023-04-21T13:56:20.941Z,0.88
2023-04-21T13:58:51.092Z,0.80
2023-04-21T14:01:21.609Z,0.70
2023-04-21T14:03:50.895Z,1.00
2023-04-21T14:06:19.727Z,0.80
2023-04-21T14:08:48.296Z,0.80
2023-04-21T14:11:16.770Z,0.90
2023-04-21T14:13:59.894Z,0.80
2023-04-21T14:16:35.517Z,0.70
2023-04-21T14:19:04.281Z,0.70
2023-04-21T14:21:32.900Z,0.80
2023-04-21T14:24:01.345Z,0.70
2023-04-21T14:26:30.027Z,0.80
2023-04-21T14:28:59.665Z,0.73
2023-04-21T14:31:28.154Z,0.75
2023-04-21T14:33:58.089Z,0.77
2023-04-21T14:36:28.038Z,1.23
2023-04-21T14:38:56.648Z,0.90
2023-04-21T14:41:25.208Z,0.60
2023-04-21T14:43:56.546Z,0.82
2023-04-21T14:46:25.308Z,0.73
2023-04-21T14:48:54.070Z,0.80
2023-04-21T14:51:23.930Z,0.80
2023-04-21T14:53:52.525Z,0.85
2023-04-21T14:56:21.392Z,1.00
2023-04-21T14:58:49.874Z,0.80
2023-04-21T15:01:19.844Z,0.65
2023-04-21T15:03:48.565Z,0.70
2023-04-21T15:06:17.464Z,0.80
2023-04-21T15:08:47.982Z,1.00
2023-04-21T15:11:16.609Z,0.80
2023-04-21T15:13:45.303Z,0.85
2023-04-21T15:16:13.954Z,0.88
2023-04-21T15:18:42.568Z,0.80
2023-04-21T15:21:11.036Z,0.90
2023-04-21T15:23:39.649Z,0.90
2023-04-21T15:26:09.710Z,0.90
2023-04-21T15:28:39.641Z,0.90
2023-04-21T15:31:10.109Z,0.60
2023-04-21T15:33:39.015Z,0.80
2023-04-21T15:36:07.634Z,0.93
2023-04-21T15:38:36.203Z,0.75
2023-04-21T15:41:04.838Z,0.70
2023-04-21T15:43:34.739Z,0.90
2023-04-21T15:46:04.455Z,0.90
2023-04-21T15:48:33.237Z,0.82
2023-04-21T15:51:01.918Z,0.90
2023-04-21T15:53:30.783Z,0.70
2023-04-21T15:55:59.340Z,0.77
2023-04-21T15:58:27.934Z,0.90
2023-04-21T16:00:58.229Z,0.50
2023-04-21T16:03:27.188Z,0.70
2023-04-21T16:05:56.215Z,0.75
2023-04-21T16:08:25.414Z,0.80
2023-04-21T16:10:53.991Z,0.70
2023-04-21T16:13:22.545Z,0.70
2023-04-21T16:15:51.288Z,0.70
2023-04-21T16:18:21.600Z,0.50
2023-04-21T16:20:50.213Z,0.50
2023-04-21T16:23:18.909Z,0.80
2023-04-21T16:25:47.501Z,0.83
2023-04-21T16:28:16.012Z,0.80
2023-04-21T16:30:44.683Z,0.73
2023-04-21T16:33:14.651Z,0.97
2023-04-21T16:35:44.700Z,0.80
2023-04-21T16:38:13.460Z,0.60
2023-04-21T16:40:42.114Z,0.70
2023-04-21T16:43:10.640Z,0.85
2023-04-21T16:45:39.770Z,0.73
2023-04-21T16:48:08.632Z,0.65
2023-04-21T16:50:37.223Z,1.00
2023-04-21T16:53:07.202Z,0.68
2023-04-21T16:55:35.870Z,0.85
2023-04-21T16:58:04.357Z,0.77
2023-04-21T17:00:33.140Z,0.70
2023-04-21T17:03:02.007Z,0.80
2023-04-21T17:05:30.583Z,0.80
2023-04-21T17:07:59.161Z,0.90
2023-04-21T17:10:29.166Z,0.70
2023-04-21T17:12:57.768Z,0.60
2023-04-21T17:15:26.666Z,1.00
2023-04-21T17:17:55.268Z,0.80
2023-04-21T17:20:23.917Z,0.70
2023-04-21T17:22:52.492Z,0.70
2023-04-21T17:25:21.088Z,0.95
2023-04-21T17:27:51.034Z,0.63
2023-04-21T17:30:21.545Z,1.00
2023-04-21T17:32:55.124Z,0.88
2023-04-21T17:35:29.370Z,0.70
2023-04-21T17:37:57.929Z,0.90
2023-04-21T17:40:26.881Z,0.70
2023-04-21T17:42:56.904Z,0.70
2023-04-21T17:45:25.635Z,0.80
2023-04-21T17:47:54.195Z,0.60
2023-04-21T17:50:23.056Z,0.70
2023-04-21T17:52:51.723Z,0.80
2023-04-21T17:55:20.638Z,0.75
2023-04-21T17:57:49.135Z,0.70
2023-04-21T18:00:20.098Z,0.60
2023-04-21T18:02:48.741Z,0.80
2023-04-21T18:05:17.383Z,0.80
2023-04-21T18:07:46.262Z,0.70
2023-04-21T18:10:14.726Z,0.97
2023-04-21T18:12:43.186Z,0.60
2023-04-21T18:15:12.393Z,0.70
2023-04-21T18:17:42.324Z,0.67
2023-04-21T18:20:12.406Z,0.77
2023-04-21T18:22:41.556Z,0.60
2023-04-21T18:25:10.343Z,0.80
2023-04-21T18:27:39.268Z,0.90
2023-04-21T18:30:08.783Z,0.90
2023-04-21T18:32:37.572Z,1.00
2023-04-21T18:35:08.166Z,1.00
2023-04-21T18:37:36.846Z,0.80
2023-04-21T18:40:06.079Z,0.90
2023-04-21T18:42:35.301Z,1.00
2023-04-21T18:45:04.759Z,0.80
2023-04-21T18:47:33.460Z,0.83
2023-04-21T18:50:01.950Z,0.70
2023-04-21T18:52:31.967Z,1.00
2023-04-21T18:55:00.544Z,1.00
2023-04-21T18:57:28.993Z,1.00
2023-04-21T18:59:57.747Z,1.17
2023-04-21T19:02:26.341Z,0.93
2023-04-21T19:04:55.364Z,1.17
2023-04-21T19:07:24.205Z,1.17
2023-04-21T19:09:54.500Z,0.90
2023-04-21T19:12:23.011Z,1.00
2023-04-21T19:14:52.322Z,1.10
2023-04-21T19:17:21.663Z,1.00
2023-04-21T19:19:51.119Z,1.03
2023-04-21T19:22:20.249Z,0.90
2023-04-21T19:24:48.773Z,0.90
2023-04-21T19:27:18.689Z,1.27
2023-04-21T19:29:47.359Z,0.60
2023-04-21T19:32:16.235Z,0.90
2023-04-21T19:34:44.749Z,0.73
2023-04-21T19:37:13.593Z,0.70
2023-04-21T19:39:42.138Z,0.70
2023-04-21T19:42:10.608Z,0.80
2023-04-21T19:44:41.005Z,0.80
2023-04-21T19:47:09.806Z,0.90
2023-04-21T19:49:38.286Z,0.80
2023-04-21T19:52:07.228Z,0.90
2023-04-21T19:54:36.201Z,0.80
2023-04-21T19:57:04.892Z,0.77
2023-04-21T19:59:34.714Z,0.90
2023-04-21T20:02:04.942Z,0.60
2023-04-21T20:04:34.670Z,1.00
2023-04-21T20:07:03.653Z,0.70
2023-04-21T20:09:32.224Z,0.70
2023-04-21T20:12:01.588Z,0.80
2023-04-21T20:14:30.160Z,0.80
2023-04-21T20:16:58.674Z,0.60
2023-04-21T20:19:31.001Z,0.90
2023-04-21T20:21:59.708Z,0.50
2023-04-21T20:24:28.852Z,0.80
2023-04-21T20:26:57.335Z,0.80
2023-04-21T20:29:25.893Z,0.80
2023-04-21T20:31:54.551Z,0.97
2023-04-21T20:34:23.018Z,0.70
2023-04-21T20:36:54.702Z,0.70
2023-04-21T20:39:23.572Z,0.80
2023-04-21T20:42:04.707Z,0.77
2023-04-21T20:44:41.429Z,0.60
2023-04-21T20:47:09.950Z,0.77
2023-04-21T20:49:40.490Z,0.90
2023-04-21T20:52:10.867Z,0.90
2023-04-21T20:54:39.428Z,0.87
2023-04-21T20:57:10.263Z,1.10
2023-04-21T20:59:39.439Z,0.60
2023-04-21T21:02:08.334Z,0.90
2023-04-21T21:04:36.897Z,0.87
2023-04-21T21:07:05.755Z,0.80
2023-04-21T21:09:36.022Z,1.40
2023-04-21T21:12:04.888Z,0.73
2023-04-21T21:14:33.577Z,0.97
2023-04-21T21:17:02.917Z,0.90
2023-04-21T21:19:31.596Z,0.70
2023-04-21T21:22:00.263Z,0.90
2023-04-21T21:24:28.958Z,0.90
2023-04-21T21:26:58.859Z,0.80
2023-04-21T21:29:27.676Z,0.90
2023-04-21T21:31:56.279Z,0.80
2023-04-21T21:34:24.794Z,0.90
2023-04-21T21:36:53.598Z,0.87
2023-04-21T21:39:22.053Z,0.90
2023-04-21T21:41:50.552Z,0.77
2023-04-21T21:44:21.494Z,0.70
2023-04-21T21:46:51.279Z,1.00
2023-04-21T21:49:19.934Z,0.73
2023-04-21T21:51:48.526Z,0.90
2023-04-21T21:54:17.149Z,0.90
2023-04-21T21:56:45.702Z,1.07
2023-04-21T21:59:14.293Z,0.80
2023-04-21T22:01:44.634Z,0.90
2023-04-21T22:04:13.747Z,0.70
2023-04-21T22:06:42.536Z,0.90
2023-04-21T22:09:11.112Z,1.00
2023-04-21T22:11:39.906Z,1.07
2023-04-21T22:14:21.672Z,0.90
2023-04-21T22:16:54.006Z,0.80
2023-04-21T22:19:22.796Z,0.70
2023-04-21T22:21:51.382Z,1.00
2023-04-21T22:24:19.904Z,1.00
2023-04-21T22:26:48.857Z,0.93
2023-04-21T22:29:17.541Z,0.97
2023-04-21T22:31:46.102Z,1.00
2023-04-21T22:34:16.901Z,1.00
2023-04-21T22:36:45.505Z,1.10
2023-04-21T22:39:14.088Z,1.00
2023-04-21T22:41:42.874Z,1.17
2023-04-21T22:44:11.358Z,1.10
2023-04-21T22:46:41.060Z,1.10
2023-04-21T22:49:09.718Z,1.20
2023-04-21T22:51:40.158Z,1.10
2023-04-21T22:54:08.778Z,1.27
2023-04-21T22:56:37.730Z,1.00
2023-04-21T22:59:06.216Z,1.10
2023-04-21T23:01:34.852Z,1.30
2023-04-21T23:04:03.607Z,1.30
2023-04-21T23:06:32.813Z,0.93
2023-04-21T23:09:02.774Z,1.30
2023-04-21T23:11:31.598Z,1.03
2023-04-21T23:14:00.084Z,1.20
2023-04-21T23:16:28.718Z,0.90
2023-04-21T23:18:57.284Z,1.30
2023-04-21T23:21:26.197Z,1.50
2023-04-21T23:23:54.807Z,1.03
2023-04-21T23:26:24.946Z,1.10
2023-04-21T23:28:53.412Z,1.20
2023-04-21T23:31:22.104Z,1.43
2023-04-21T23:33:50.737Z,1.33
2023-04-21T23:36:20.727Z,1.43
2023-04-21T23:38:49.356Z,1.40
2023-04-21T23:41:17.979Z,1.40
2023-04-21T23:43:47.867Z,1.37
2023-04-21T23:46:16.579Z,1.50
2023-04-21T23:48:45.426Z,1.30
2023-04-21T23:51:14.142Z,1.40
2023-04-21T23:53:42.779Z,1.40
2023-04-21T23:56:11.569Z,1.30
2023-04-21T23:58:40.028Z,1.37
